| time (UTC) | temp C | wind direction | speed KPH | gust KPH | rain 1hr cm | rain 24hr cm | rain mn cm | humidity % | barometer mb |
| 20260510220717 | 20 | 36 | 6.4 | 14.5 | 0.00 | 0.00 | 0.00 | 37 | 1016.9 |
| 20260510220212 | 20 | 20 | 1.6 | 3.2 | 0.00 | 0.00 | 0.00 | 36 | 1016.8 |
| 20260510215709 | 20 | 291 | 3.2 | 9.7 | 0.00 | 0.00 | 0.00 | 36 | 1016.6 |
| 20260510215208 | 20 | 331 | 1.6 | 9.7 | 0.00 | 0.00 | 0.00 | 38 | 1016.6 |
| 20260510214704 | 20 | 342 | 4.8 | 6.4 | 0.00 | 0.00 | 0.00 | 39 | 1016.3 |
| 20260510214201 | 20 | 247 | 3.2 | 9.7 | 0.00 | 0.00 | 0.00 | 37 | 1016.2 |
| 20260510213658 | 20 | 36 | 4.8 | 6.4 | 0.00 | 0.00 | 0.00 | 37 | 1016.1 |
| 20260510213154 | 19 | 27 | 1.6 | 3.2 | 0.00 | 0.00 | 0.00 | 39 | 1016.1 |
| 20260510212650 | 18 | 52 | 3.2 | 4.8 | 0.00 | 0.00 | 0.00 | 40 | 1015.8 |
| 20260510212149 | 19 | 82 | 4.8 | 11.3 | 0.00 | 0.00 | 0.00 | 38 | 1015.8 |
| 20260510211644 | 20 | 27 | 3.2 | 6.4 | 0.00 | 0.00 | 0.00 | 37 | 1015.9 |
| 20260510211139 | 20 | 222 | 4.8 | 6.4 | 0.00 | 0.00 | 0.00 | 39 | 1015.7 |
| 20260510210635 | 20 | 26 | 4.8 | 11.3 | 0.00 | 0.00 | 0.00 | 39 | 1015.8 |
| 20260510210131 | 19 | 66 | 0.0 | 3.2 | 0.00 | 0.00 | 0.00 | 41 | 1015.6 |
| 20260510205630 | 18 | 47 | 3.2 | 4.8 | 0.00 | 0.00 | 0.00 | 41 | 1015.8 |
| 20260510205126 | 18 | 23 | 4.8 | 9.7 | 0.00 | 0.00 | 0.00 | 40 | 1015.8 |
| 20260510204622 | 20 | 319 | 6.4 | 16.1 | 0.00 | 0.00 | 0.00 | 39 | 1015.8 |
| 20260510204119 | 20 | 334 | 3.2 | 6.4 | 0.00 | 0.00 | 0.00 | 38 | 1015.8 |
| 20260510203616 | 18 | 24 | 4.8 | 9.7 | 0.00 | 0.00 | 0.00 | 39 | 1015.8 |
| 20260510203113 | 18 | 18 | 6.4 | 9.7 | 0.00 | 0.00 | 0.00 | 40 | 1015.9 |
| 20260510202612 | 18 | 42 | 6.4 | 9.7 | 0.00 | 0.00 | 0.00 | 40 | 1015.9 |
| 20260510202108 | 20 | 46 | 1.6 | 9.7 | 0.00 | 0.00 | 0.00 | 36 | 1015.9 |
| 20260510201605 | 20 | 313 | 3.2 | 6.4 | 0.00 | 0.00 | 0.00 | 35 | 1015.7 |
| 20260510201102 | 20 | 2 | 3.2 | 11.3 | 0.00 | 0.00 | 0.00 | 35 | 1015.8 |
| 20260510200553 | 20 | 101 | 4.8 | 16.1 | 0.00 | 0.00 | 0.00 | 38 | 1016.0 |
| 20260510200051 | 20 | 50 | 3.2 | 6.4 | 0.00 | 0.00 | 0.00 | 37 | 1016.1 |
| 20260510195548 | 20 | 56 | 3.2 | 9.7 | 0.00 | 0.00 | 0.00 | 36 | 1016.0 |
| 20260510195043 | 20 | 18 | 8.0 | 11.3 | 0.00 | 0.00 | 0.00 | 36 | 1016.0 |
| 20260510194539 | 20 | 358 | 6.4 | 16.1 | 0.00 | 0.00 | 0.00 | 39 | 1016.1 |
| 20260510194035 | 20 | 68 | 3.2 | 11.3 | 0.00 | 0.00 | 0.00 | 37 | 1016.1 |
| 20260510193530 | 20 | 289 | 3.2 | 11.3 | 0.00 | 0.00 | 0.00 | 36 | 1016.1 |
| 20260510193026 | 20 | 80 | 9.7 | 12.9 | 0.00 | 0.00 | 0.00 | 38 | 1015.9 |
| 20260510192521 | 20 | 5 | 6.4 | 9.7 | 0.00 | 0.00 | 0.00 | 38 | 1015.9 |
| 20260510192017 | 20 | 84 | 11.3 | 14.5 | 0.00 | 0.00 | 0.00 | 38 | 1016.0 |
| 20260510191514 | 20 | 330 | 6.4 | 11.3 | 0.00 | 0.00 | 0.00 | 39 | 1015.9 |
| 20260510191010 | 21 | 18 | 8.0 | 11.3 | 0.00 | 0.00 | 0.00 | 35 | 1016.1 |
| 20260510190503 | 20 | 34 | 0.0 | 11.3 | 0.00 | 0.00 | 0.00 | 39 | 1016.1 |
| 20260510185959 | 20 | 8 | 4.8 | 9.7 | 0.00 | 0.00 | 0.00 | 38 | 1015.8 |
| 20260510185456 | 19 | 61 | 3.2 | 6.4 | 0.00 | 0.00 | 0.00 | 40 | 1016.1 |
| 20260510184953 | 17 | 63 | 3.2 | 14.5 | 0.00 | 0.00 | 0.00 | 42 | 1015.9 |
| 20260510184451 | 19 | 61 | 8.0 | 14.5 | 0.00 | 0.00 | 0.00 | 40 | 1015.8 |
| 20260510183945 | 19 | 71 | 1.6 | 4.8 | 0.00 | 0.00 | 0.00 | 40 | 1015.8 |
| 20260510183442 | 20 | 312 | 4.8 | 9.7 | 0.00 | 0.00 | 0.00 | 39 | 1016.1 |
| 20260510182942 | 19 | 334 | 3.2 | 9.7 | 0.00 | 0.00 | 0.00 | 42 | 1016.0 |
| 20260510182438 | 18 | 68 | 8.0 | 11.3 | 0.00 | 0.00 | 0.00 | 40 | 1015.8 |
| 20260510181934 | 20 | 61 | 1.6 | 12.9 | 0.00 | 0.00 | 0.00 | 40 | 1015.9 |
| 20260510181433 | 20 | 82 | 1.6 | 6.4 | 0.00 | 0.00 | 0.00 | 38 | 1015.8 |
| 20260510180928 | 20 | 357 | 3.2 | 4.8 | 0.00 | 0.00 | 0.00 | 40 | 1015.8 |
| 20260510180425 | 20 | 16 | 3.2 | 6.4 | 0.00 | 0.00 | 0.00 | 38 | 1016.0 |
| 20260510175922 | 18 | 342 | 3.2 | 9.7 | 0.00 | 0.00 | 0.00 | 41 | 1016.1 |
| 20260510175418 | 18 | 37 | 9.7 | 12.9 | 0.00 | 0.00 | 0.00 | 42 | 1015.9 |
| 20260510174914 | 18 | 91 | 6.4 | 12.9 | 0.00 | 0.00 | 0.00 | 39 | 1015.6 |
| 20260510174412 | 18 | 25 | 8.0 | 11.3 | 0.00 | 0.00 | 0.00 | 38 | 1015.5 |
| 20260510173908 | 19 | 73 | 9.7 | 12.9 | 0.00 | 0.00 | 0.00 | 38 | 1015.5 |
| 20260510173404 | 19 | 63 | 3.2 | 6.4 | 0.00 | 0.00 | 0.00 | 38 | 1015.4 |
| 20260510172901 | 19 | 338 | 4.8 | 6.4 | 0.00 | 0.00 | 0.00 | 38 | 1015.6 |
| 20260510172356 | 18 | 338 | 6.4 | 9.7 | 0.00 | 0.00 | 0.00 | 40 | 1015.6 |
| 20260510171853 | 18 | 278 | 3.2 | 6.4 | 0.00 | 0.00 | 0.00 | 40 | 1015.5 |
| 20260510171350 | 18 | 100 | 1.6 | 6.4 | 0.00 | 0.00 | 0.00 | 40 | 1015.6 |
| 20260510170847 | 18 | 11 | 1.6 | 6.4 | 0.00 | 0.00 | 0.00 | 40 | 1015.5 |
| 20260510170343 | 18 | 49 | 4.8 | 14.5 | 0.00 | 0.00 | 0.00 | 40 | 1015.5 |
| 20260510165839 | 18 | 61 | 0.0 | 1.6 | 0.00 | 0.00 | 0.00 | 39 | 1015.5 |
| 20260510165335 | 18 | 82 | 6.4 | 12.9 | 0.00 | 0.00 | 0.00 | 39 | 1015.4 |
| 20260510164833 | 17 | 39 | 3.2 | 11.3 | 0.00 | 0.00 | 0.00 | 39 | 1015.6 |
| 20260510164330 | 17 | 52 | 6.4 | 6.4 | 0.00 | 0.00 | 0.00 | 38 | 1015.7 |
| 20260510163829 | 17 | 43 | 6.4 | 11.3 | 0.00 | 0.00 | 0.00 | 40 | 1015.7 |
| 20260510163325 | 17 | 44 | 3.2 | 9.7 | 0.00 | 0.00 | 0.00 | 43 | 1015.8 |
| 20260510162820 | 18 | 330 | 3.2 | 6.4 | 0.00 | 0.00 | 0.00 | 41 | 1015.6 |
| 20260510162318 | 17 | 43 | 4.8 | 9.7 | 0.00 | 0.00 | 0.00 | 41 | 1015.5 |
| 20260510161813 | 17 | 285 | 4.8 | 11.3 | 0.00 | 0.00 | 0.00 | 40 | 1015.7 |
| 20260510161309 | 17 | 84 | 6.4 | 11.3 | 0.00 | 0.00 | 0.00 | 43 | 1015.6 |
| 20260510160806 | 17 | 14 | 6.4 | 16.1 | 0.00 | 0.00 | 0.00 | 41 | 1015.8 |
| 20260510160302 | 17 | 75 | 1.6 | 6.4 | 0.00 | 0.00 | 0.00 | 43 | 1015.6 |
| 20260510155757 | 16 | 102 | 3.2 | 4.8 | 0.00 | 0.00 | 0.00 | 45 | 1015.5 |
| 20260510155254 | 17 | 21 | 8.0 | 12.9 | 0.00 | 0.00 | 0.00 | 43 | 1015.5 |
| 20260510154749 | 16 | 32 | 8.0 | 11.3 | 0.00 | 0.00 | 0.00 | 44 | 1015.5 |
| 20260510154245 | 16 | 95 | 3.2 | 4.8 | 0.00 | 0.00 | 0.00 | 43 | 1015.4 |
| 20260510153735 | 16 | 31 | 3.2 | 9.7 | 0.00 | 0.00 | 0.00 | 46 | 1015.7 |
| 20260510153231 | 16 | 110 | 4.8 | 6.4 | 0.00 | 0.00 | 0.00 | 48 | 1015.5 |
| 20260510152728 | 15 | 31 | 1.6 | 4.8 | 0.00 | 0.00 | 0.00 | 49 | 1015.2 |
| 20260510152224 | 16 | 72 | 4.8 | 6.4 | 0.00 | 0.00 | 0.00 | 48 | 1015.3 |
| 20260510151721 | 16 | 130 | 3.2 | 9.7 | 0.00 | 0.00 | 0.00 | 47 | 1015.1 |
| 20260510151220 | 16 | 19 | 3.2 | 12.9 | 0.00 | 0.00 | 0.00 | 48 | 1015.1 |
| 20260510150715 | 16 | 57 | 3.2 | 9.7 | 0.00 | 0.00 | 0.00 | 49 | 1015.1 |
| 20260510150210 | 16 | 25 | 4.8 | 6.4 | 0.00 | 0.00 | 0.00 | 48 | 1014.9 |
| 20260510145707 | 15 | 117 | 1.6 | 6.4 | 0.00 | 0.00 | 0.00 | 50 | 1014.9 |
| 20260510145203 | 15 | 31 | 4.8 | 6.4 | 0.00 | 0.00 | 0.00 | 49 | 1014.7 |
| 20260510144659 | 15 | 53 | 1.6 | 4.8 | 0.00 | 0.00 | 0.00 | 49 | 1014.9 |
| 20260510144156 | 15 | 23 | 3.2 | 9.7 | 0.00 | 0.00 | 0.00 | 52 | 1014.7 |
| 20260510143651 | 15 | 68 | 3.2 | 4.8 | 0.00 | 0.00 | 0.00 | 49 | 1014.6 |
| 20260510143148 | 15 | 80 | 3.2 | 6.4 | 0.00 | 0.00 | 0.00 | 50 | 1014.5 |
| 20260510142644 | 15 | 12 | 3.2 | 11.3 | 0.00 | 0.00 | 0.00 | 50 | 1014.4 |
| 20260510142141 | 15 | 48 | 4.8 | 4.8 | 0.00 | 0.00 | 0.00 | 50 | 1014.3 |
| 20260510141638 | 14 | 12 | 6.4 | 6.4 | 0.00 | 0.00 | 0.00 | 51 | 1014.5 |
| 20260510141136 | 14 | 23 | 8.0 | 11.3 | 0.00 | 0.00 | 0.00 | 51 | 1014.4 |
| 20260510140632 | 14 | 27 | 4.8 | 11.3 | 0.00 | 0.00 | 0.00 | 51 | 1014.4 |
| 20260510140132 | 14 | 40 | 6.4 | 14.5 | 0.00 | 0.00 | 0.00 | 50 | 1014.2 |
| 20260510135627 | 13 | 54 | 3.2 | 4.8 | 0.00 | 0.00 | 0.00 | 53 | 1014.3 |
| 20260510135124 | 13 | 88 | 1.6 | 11.3 | 0.00 | 0.00 | 0.00 | 52 | 1014.1 |
| 20260510134621 | 14 | 21 | 8.0 | 16.1 | 0.00 | 0.00 | 0.00 | 51 | 1014.2 |
| 20260510134118 | 13 | 68 | 3.2 | 6.4 | 0.00 | 0.00 | 0.00 | 52 | 1014.1 |
| 20260510133614 | 13 | 353 | 6.4 | 12.9 | 0.00 | 0.00 | 0.00 | 53 | 1014.1 |
| 20260510133109 | 13 | 58 | 3.2 | 4.8 | 0.00 | 0.00 | 0.00 | 54 | 1014.0 |
| 20260510132606 | 13 | 60 | 1.6 | 6.4 | 0.00 | 0.00 | 0.00 | 54 | 1013.9 |
| 20260510132103 | 13 | 74 | 4.8 | 6.4 | 0.00 | 0.00 | 0.00 | 53 | 1013.9 |
| 20260510131601 | 13 | 72 | 0.0 | 1.6 | 0.00 | 0.00 | 0.00 | 55 | 1013.9 |
| 20260510131058 | 13 | 59 | 1.6 | 4.8 | 0.00 | 0.00 | 0.00 | 54 | 1013.8 |
| 20260510130554 | 13 | 68 | 1.6 | 6.4 | 0.00 | 0.00 | 0.00 | 53 | 1013.8 |
| 20260510130052 | 13 | 63 | 4.8 | 9.7 | 0.00 | 0.00 | 0.00 | 53 | 1013.8 |
| 20260510125548 | 13 | 50 | 3.2 | 9.7 | 0.00 | 0.00 | 0.00 | 53 | 1014.0 |
| 20260510125044 | 13 | 59 | 0.0 | 3.2 | 0.00 | 0.00 | 0.00 | 55 | 1013.8 |
| 20260510124541 | 12 | 69 | 0.0 | 3.2 | 0.00 | 0.00 | 0.00 | 55 | 1013.7 |
| 20260510124038 | 12 | 60 | 3.2 | 6.4 | 0.00 | 0.00 | 0.00 | 55 | 1013.4 |
| 20260510123533 | 12 | 115 | 1.6 | 4.8 | 0.00 | 0.00 | 0.00 | 55 | 1013.3 |
| 20260510123030 | 12 | 26 | 1.6 | 3.2 | 0.00 | 0.00 | 0.00 | 60 | 1013.4 |
| 20260510122525 | 12 | 89 | 1.6 | 4.8 | 0.00 | 0.00 | 0.00 | 60 | 1013.3 |
| 20260510122022 | 12 | 57 | 0.0 | 4.8 | 0.00 | 0.00 | 0.00 | 60 | 1013.3 |
| 20260510121519 | 12 | 80 | 0.0 | 3.2 | 0.00 | 0.00 | 0.00 | 62 | 1013.2 |
| 20260510121016 | 12 | 63 | 0.0 | 1.6 | 0.00 | 0.00 | 0.00 | 61 | 1013.1 |
| 20260510120514 | 12 | 63 | 0.0 | 3.2 | 0.00 | 0.00 | 0.00 | 63 | 1013.2 |
| 20260510120010 | 12 | 46 | 1.6 | 3.2 | 0.00 | 0.00 | 0.00 | 64 | 1013.2 |
| 20260510115507 | 12 | 57 | 1.6 | 3.2 | 0.00 | 0.00 | 0.00 | 65 | 1013.2 |
| 20260510115003 | 12 | 63 | 1.6 | 3.2 | 0.00 | 0.00 | 0.00 | 64 | 1013.0 |
| 20260510114459 | 12 | 63 | 1.6 | 1.6 | 0.00 | 0.00 | 0.00 | 64 | 1012.9 |
| 20260510113955 | 12 | 67 | 0.0 | 1.6 | 0.00 | 0.00 | 0.00 | 64 | 1012.9 |
| 20260510113450 | 12 | 70 | 3.2 | 4.8 | 0.00 | 0.00 | 0.00 | 63 | 1012.7 |
| 20260510112948 | 12 | 63 | 0.0 | 0.0 | 0.00 | 0.00 | 0.00 | 64 | 1012.6 |
| 20260510112445 | 12 | 41 | 0.0 | 1.6 | 0.00 | 0.00 | 0.00 | 65 | 1012.4 |
| 20260510111941 | 12 | 29 | 1.6 | 3.2 | 0.00 | 0.00 | 0.00 | 64 | 1012.7 |
| 20260510111437 | 12 | 75 | 0.0 | 1.6 | 0.00 | 0.00 | 0.00 | 64 | 1012.3 |
| 20260510110933 | 12 | 57 | 0.0 | 4.8 | 0.00 | 0.00 | 0.00 | 63 | 1012.1 |
| 20260510110430 | 12 | 60 | 1.6 | 1.6 | 0.00 | 0.00 | 0.00 | 64 | 1011.9 |
| 20260510105926 | 12 | 69 | 1.6 | 6.4 | 0.00 | 0.00 | 0.00 | 63 | 1011.6 |
| 20260510105421 | 12 | 65 | 1.6 | 4.8 | 0.00 | 0.00 | 0.00 | 63 | 1012.0 |
| 20260510104917 | 12 | 70 | 1.6 | 9.7 | 0.00 | 0.00 | 0.00 | 63 | 1012.0 |
| 20260510104414 | 13 | 60 | 3.2 | 12.9 | 0.00 | 0.00 | 0.00 | 63 | 1011.8 |
| 20260510103910 | 13 | 46 | 4.8 | 9.7 | 0.00 | 0.00 | 0.00 | 63 | 1011.9 |
| 20260510103408 | 13 | 46 | 4.8 | 11.3 | 0.00 | 0.00 | 0.00 | 64 | 1011.5 |
| 20260510102903 | 13 | 79 | 0.0 | 4.8 | 0.00 | 0.00 | 0.00 | 64 | 1011.1 |
| 20260510102358 | 13 | 18 | 4.8 | 9.7 | 0.00 | 0.00 | 0.00 | 64 | 1011.3 |
| 20260510101856 | 13 | 34 | 1.6 | 6.4 | 0.00 | 0.00 | 0.00 | 64 | 1011.2 |
| 20260510101354 | 13 | 56 | 3.2 | 11.3 | 0.00 | 0.00 | 0.00 | 64 | 1011.2 |
| 20260510100851 | 13 | 49 | 0.0 | 1.6 | 0.00 | 0.00 | 0.00 | 65 | 1011.0 |
| 20260510100348 | 13 | 22 | 4.8 | 4.8 | 0.00 | 0.00 | 0.00 | 65 | 1010.8 |
| 20260510095844 | 13 | 64 | 0.0 | 3.2 | 0.00 | 0.00 | 0.00 | 65 | 1010.8 |
| 20260510095339 | 13 | 14 | 4.8 | 4.8 | 0.00 | 0.00 | 0.00 | 65 | 1010.7 |
| 20260510094838 | 13 | 77 | 1.6 | 1.6 | 0.00 | 0.00 | 0.00 | 65 | 1010.7 |
| 20260510094333 | 13 | 68 | 1.6 | 3.2 | 0.00 | 0.00 | 0.00 | 65 | 1010.8 |
| 20260510093830 | 13 | 28 | 1.6 | 3.2 | 0.00 | 0.00 | 0.00 | 65 | 1010.7 |
| 20260510093326 | 13 | 60 | 0.0 | 3.2 | 0.00 | 0.00 | 0.00 | 66 | 1010.7 |
| 20260510092822 | 13 | 39 | 0.0 | 4.8 | 0.00 | 0.00 | 0.00 | 64 | 1010.6 |
| 20260510092318 | 14 | 65 | 1.6 | 4.8 | 0.00 | 0.00 | 0.00 | 64 | 1010.4 |
| 20260510091814 | 14 | 28 | 1.6 | 6.4 | 0.00 | 0.00 | 0.00 | 65 | 1010.2 |
| 20260510091312 | 14 | 49 | 4.8 | 11.3 | 0.00 | 0.00 | 0.00 | 65 | 1010.2 |
| 20260510090808 | 14 | 54 | 1.6 | 3.2 | 0.00 | 0.00 | 0.00 | 65 | 1010.2 |
| 20260510090305 | 14 | 25 | 3.2 | 4.8 | 0.00 | 0.00 | 0.00 | 65 | 1009.8 |
| 20260510085801 | 14 | 73 | 1.6 | 12.9 | 0.00 | 0.00 | 0.00 | 65 | 1010.0 |
| 20260510085300 | 15 | 47 | 1.6 | 11.3 | 0.00 | 0.00 | 0.00 | 65 | 1009.8 |
| 20260510084756 | 15 | 54 | 1.6 | 3.2 | 0.00 | 0.00 | 0.00 | 64 | 1009.6 |
| 20260510084254 | 15 | 2 | 3.2 | 6.4 | 0.00 | 0.00 | 0.00 | 64 | 1009.5 |
| 20260510083750 | 15 | 66 | 0.0 | 11.3 | 0.00 | 0.00 | 0.00 | 64 | 1009.2 |
| 20260510083248 | 15 | 36 | 3.2 | 16.1 | 0.00 | 0.00 | 0.00 | 64 | 1009.0 |
| 20260510082743 | 15 | 30 | 4.8 | 4.8 | 0.00 | 0.00 | 0.00 | 65 | 1009.0 |
| 20260510082240 | 15 | 61 | 4.8 | 9.7 | 0.00 | 0.00 | 0.00 | 66 | 1009.2 |
| 20260510081739 | 15 | 1 | 3.2 | 4.8 | 0.00 | 0.00 | 0.00 | 67 | 1009.0 |
| 20260510081235 | 15 | 41 | 0.0 | 1.6 | 0.00 | 0.00 | 0.00 | 68 | 1008.9 |
| 20260510080730 | 15 | 177 | 3.2 | 6.4 | 0.00 | 0.00 | 0.00 | 68 | 1008.9 |
| 20260510080226 | 15 | 355 | 3.2 | 4.8 | 0.00 | 0.00 | 0.00 | 68 | 1009.0 |
| 20260510075723 | 15 | 71 | 0.0 | 3.2 | 0.00 | 0.00 | 0.00 | 68 | 1008.9 |
| 20260510075221 | 15 | 62 | 1.6 | 3.2 | 0.00 | 0.00 | 0.00 | 67 | 1008.9 |
| 20260510074718 | 15 | 14 | 3.2 | 4.8 | 0.00 | 0.00 | 0.00 | 67 | 1008.8 |
| 20260510074214 | 15 | 310 | 4.8 | 6.4 | 0.00 | 0.00 | 0.00 | 66 | 1008.8 |
| 20260510073711 | 16 | 339 | 3.2 | 6.4 | 0.00 | 0.00 | 0.00 | 66 | 1008.8 |
| 20260510073206 | 16 | 326 | 4.8 | 9.7 | 0.00 | 0.00 | 0.00 | 65 | 1009.3 |
| 20260510072703 | 16 | 292 | 4.8 | 6.4 | 0.00 | 0.00 | 0.00 | 65 | 1009.1 |
| 20260510072159 | 16 | 289 | 3.2 | 4.8 | 0.00 | 0.00 | 0.00 | 64 | 1009.2 |
| 20260510071656 | 16 | 234 | 1.6 | 4.8 | 0.00 | 0.00 | 0.00 | 64 | 1009.2 |
| 20260510071153 | 16 | 336 | 1.6 | 1.6 | 0.00 | 0.00 | 0.00 | 63 | 1008.8 |
| 20260510070650 | 16 | 319 | 3.2 | 3.2 | 0.00 | 0.00 | 0.00 | 63 | 1008.6 |
| 20260510070148 | 16 | 332 | 0.0 | 1.6 | 0.00 | 0.00 | 0.00 | 63 | 1008.6 |
| 20260510065643 | 16 | 315 | 1.6 | 3.2 | 0.00 | 0.00 | 0.00 | 62 | 1008.8 |
| 20260510065139 | 16 | 266 | 3.2 | 3.2 | 0.00 | 0.00 | 0.00 | 62 | 1008.9 |
| 20260510064636 | 16 | 326 | 1.6 | 3.2 | 0.00 | 0.00 | 0.00 | 63 | 1008.9 |
| 20260510064133 | 16 | 289 | 1.6 | 3.2 | 0.00 | 0.00 | 0.00 | 63 | 1008.9 |
| 20260510063629 | 16 | 307 | 3.2 | 4.8 | 0.00 | 0.00 | 0.00 | 62 | 1009.0 |
| 20260510063126 | 16 | 283 | 3.2 | 6.4 | 0.00 | 0.00 | 0.00 | 62 | 1008.8 |
| 20260510062622 | 16 | 338 | 1.6 | 4.8 | 0.00 | 0.00 | 0.00 | 63 | 1008.8 |
| 20260510062118 | 17 | 27 | 0.0 | 3.2 | 0.00 | 0.00 | 0.00 | 63 | 1008.8 |
| 20260510061614 | 17 | 214 | 3.2 | 9.7 | 0.00 | 0.00 | 0.00 | 62 | 1008.5 |
| 20260510061112 | 17 | 285 | 3.2 | 9.7 | 0.00 | 0.00 | 0.00 | 62 | 1008.6 |
| 20260510060607 | 17 | 288 | 6.4 | 9.7 | 0.00 | 0.00 | 0.00 | 62 | 1008.6 |
| 20260510060104 | 17 | 321 | 6.4 | 12.9 | 0.00 | 0.00 | 0.00 | 62 | 1009.0 |
| 20260510055600 | 17 | 272 | 3.2 | 14.5 | 0.00 | 0.00 | 0.00 | 63 | 1009.0 |
| 20260510055059 | 17 | 334 | 4.8 | 14.5 | 0.00 | 0.00 | 0.00 | 64 | 1009.2 |
| 20260510054554 | 17 | 265 | 9.7 | 14.5 | 0.00 | 0.00 | 0.00 | 64 | 1009.1 |
| 20260510054049 | 17 | 274 | 8.0 | 12.9 | 0.00 | 0.00 | 0.00 | 63 | 1009.1 |
| 20260510053544 | 17 | 267 | 9.7 | 24.1 | 0.00 | 0.00 | 0.00 | 62 | 1009.2 |
| 20260510053041 | 17 | 242 | 8.0 | 12.9 | 0.00 | 0.00 | 0.00 | 62 | 1009.2 |
| 20260510052537 | 17 | 283 | 9.7 | 12.9 | 0.00 | 0.00 | 0.00 | 63 | 1009.1 |
| 20260510052033 | 17 | 277 | 3.2 | 4.8 | 0.00 | 0.00 | 0.00 | 64 | 1008.9 |
| 20260510051529 | 17 | 179 | 1.6 | 3.2 | 0.00 | 0.00 | 0.00 | 64 | 1008.6 |
| 20260510051026 | 17 | 180 | 1.6 | 3.2 | 0.00 | 0.00 | 0.00 | 64 | 1008.8 |
| 20260510050523 | 17 | 296 | 3.2 | 4.8 | 0.00 | 0.00 | 0.00 | 63 | 1008.4 |
| 20260510050020 | 17 | 294 | 3.2 | 4.8 | 0.00 | 0.00 | 0.00 | 62 | 1008.5 |
| 20260510045517 | 17 | 15 | 0.0 | 3.2 | 0.00 | 0.00 | 0.00 | 63 | 1008.4 |
| 20260510045013 | 17 | 88 | 0.0 | 3.2 | 0.00 | 0.00 | 0.00 | 63 | 1008.5 |
| 20260510044510 | 17 | 330 | 1.6 | 3.2 | 0.00 | 0.00 | 0.00 | 62 | 1008.2 |
| 20260510044008 | 17 | 257 | 0.0 | 4.8 | 0.00 | 0.00 | 0.00 | 63 | 1008.2 |
| 20260510043502 | 17 | 130 | 0.0 | 0.0 | 0.00 | 0.00 | 0.00 | 63 | 1008.3 |
| 20260510043002 | 17 | 186 | 0.0 | 3.2 | 0.00 | 0.00 | 0.00 | 63 | 1008.1 |
| 20260510042457 | 17 | 156 | 1.6 | 1.6 | 0.00 | 0.00 | 0.00 | 63 | 1008.2 |
| 20260510041952 | 17 | 181 | 1.6 | 6.4 | 0.00 | 0.00 | 0.00 | 62 | 1008.2 |
| 20260510041450 | 17 | 138 | 0.0 | 3.2 | 0.00 | 0.00 | 0.00 | 63 | 1008.1 |
| 20260510040948 | 17 | 207 | 0.0 | 3.2 | 0.00 | 0.00 | 0.00 | 62 | 1008.0 |
| 20260510040444 | 17 | 175 | 1.6 | 3.2 | 0.00 | 0.00 | 0.00 | 62 | 1008.0 |
| 20260510035940 | 17 | 200 | 1.6 | 3.2 | 0.00 | 0.53 | 0.53 | 62 | 1007.8 |
| 20260510035436 | 17 | 206 | 3.2 | 6.4 | 0.00 | 0.53 | 0.53 | 62 | 1007.9 |
| 20260510034936 | 17 | 223 | 3.2 | 3.2 | 0.00 | 0.53 | 0.53 | 63 | 1008.1 |
| 20260510034435 | 17 | 123 | 1.6 | 3.2 | 0.00 | 0.53 | 0.53 | 62 | 1007.8 |
| 20260510033931 | 17 | 95 | 1.6 | 3.2 | 0.00 | 0.53 | 0.53 | 62 | 1007.7 |
| 20260510033427 | 17 | 132 | 0.0 | 0.0 | 0.00 | 0.53 | 0.53 | 62 | 1007.8 |
| 20260510032924 | 18 | 147 | 1.6 | 3.2 | 0.00 | 0.53 | 0.53 | 61 | 1007.8 |
| 20260510032421 | 18 | 129 | 1.6 | 3.2 | 0.00 | 0.53 | 0.53 | 61 | 1007.7 |
| 20260510031916 | 18 | 140 | 1.6 | 3.2 | 0.00 | 0.53 | 0.53 | 61 | 1007.6 |
| 20260510031413 | 18 | 144 | 1.6 | 3.2 | 0.00 | 0.53 | 0.53 | 61 | 1007.7 |
| 20260510030913 | 18 | 113 | 0.0 | 4.8 | 0.00 | 0.53 | 0.53 | 61 | 1007.6 |
| 20260510030409 | 18 | 201 | 3.2 | 3.2 | 0.00 | 0.53 | 0.53 | 60 | 1007.6 |
| 20260510025907 | 18 | 195 | 6.4 | 6.4 | 0.00 | 0.53 | 0.53 | 60 | 1007.6 |
| 20260510025404 | 18 | 121 | 1.6 | 4.8 | 0.00 | 0.53 | 0.53 | 61 | 1007.6 |
| 20260510024901 | 18 | 147 | 1.6 | 1.6 | 0.00 | 0.53 | 0.53 | 61 | 1007.6 |
| 20260510024358 | 18 | 121 | 0.0 | 3.2 | 0.00 | 0.53 | 0.53 | 61 | 1007.6 |
| 20260510023854 | 18 | 200 | 3.2 | 3.2 | 0.00 | 0.53 | 0.53 | 60 | 1007.5 |
| 20260510023350 | 18 | 204 | 3.2 | 3.2 | 0.00 | 0.53 | 0.53 | 60 | 1007.5 |
| 20260510022848 | 18 | 178 | 1.6 | 3.2 | 0.00 | 0.53 | 0.53 | 60 | 1007.4 |
| 20260510022347 | 18 | 168 | 1.6 | 3.2 | 0.00 | 0.53 | 0.53 | 60 | 1007.5 |
| 20260510021846 | 18 | 122 | 1.6 | 1.6 | 0.00 | 0.53 | 0.53 | 60 | 1007.2 |
| 20260510021344 | 18 | 194 | 1.6 | 4.8 | 0.00 | 0.53 | 0.53 | 59 | 1007.2 |
| 20260510020841 | 18 | 154 | 1.6 | 3.2 | 0.00 | 0.53 | 0.53 | 60 | 1007.3 |
| 20260510020340 | 19 | 92 | 1.6 | 3.2 | 0.00 | 0.53 | 0.53 | 60 | 1007.0 |
| 20260510015836 | 19 | 164 | 1.6 | 3.2 | 0.00 | 0.53 | 0.53 | 59 | 1007.3 |
| 20260510015332 | 19 | 219 | 3.2 | 4.8 | 0.00 | 0.53 | 0.53 | 59 | 1007.1 |
| 20260510014828 | 19 | 161 | 1.6 | 4.8 | 0.00 | 0.53 | 0.53 | 59 | 1007.1 |
| 20260510014325 | 19 | 191 | 3.2 | 3.2 | 0.00 | 0.53 | 0.53 | 59 | 1007.0 |
| 20260510013821 | 19 | 164 | 3.2 | 4.8 | 0.00 | 0.53 | 0.53 | 59 | 1006.9 |
| 20260510013317 | 20 | 208 | 3.2 | 4.8 | 0.00 | 0.53 | 0.53 | 58 | 1006.7 |
| 20260510012812 | 20 | 217 | 3.2 | 4.8 | 0.00 | 0.53 | 0.53 | 58 | 1006.7 |
| 20260510012307 | 20 | 217 | 3.2 | 3.2 | 0.00 | 0.53 | 0.53 | 58 | 1006.7 |
| 20260510011806 | 20 | 162 | 1.6 | 1.6 | 0.00 | 0.53 | 0.53 | 57 | 1006.8 |
| 20260510011302 | 20 | 221 | 1.6 | 3.2 | 0.00 | 0.53 | 0.53 | 57 | 1006.4 |
| 20260510010759 | 20 | 172 | 3.2 | 4.8 | 0.00 | 0.53 | 0.53 | 57 | 1006.2 |
| 20260510010256 | 20 | 165 | 3.2 | 4.8 | 0.00 | 0.53 | 0.53 | 56 | 1006.2 |
| 20260510005753 | 20 | 177 | 1.6 | 3.2 | 0.00 | 0.53 | 0.53 | 56 | 1006.4 |
| 20260510005249 | 20 | 183 | 1.6 | 3.2 | 0.00 | 0.53 | 0.53 | 56 | 1006.3 |
| 20260510004747 | 20 | 163 | 3.2 | 3.2 | 0.00 | 0.53 | 0.53 | 55 | 1006.2 |
| 20260510004244 | 20 | 184 | 3.2 | 6.4 | 0.00 | 0.53 | 0.53 | 55 | 1006.3 |
| 20260510003742 | 20 | 200 | 1.6 | 3.2 | 0.00 | 0.53 | 0.53 | 54 | 1006.3 |
| 20260510003238 | 20 | 209 | 1.6 | 6.4 | 0.00 | 0.53 | 0.53 | 54 | 1006.4 |
| 20260510002736 | 20 | 160 | 3.2 | 4.8 | 0.00 | 0.53 | 0.53 | 53 | 1006.1 |
| 20260510002234 | 21 | 201 | 3.2 | 6.4 | 0.00 | 0.53 | 0.53 | 53 | 1006.1 |
| 20260510001731 | 21 | 207 | 6.4 | 11.3 | 0.00 | 0.53 | 0.53 | 52 | 1006.0 |
| 20260510001230 | 21 | 279 | 3.2 | 6.4 | 0.00 | 0.53 | 0.53 | 52 | 1006.2 |
| 20260510000725 | 21 | 82 | 1.6 | 6.4 | 0.00 | 0.53 | 0.53 | 52 | 1006.0 |
| 20260510000222 | 21 | 217 | 3.2 | 6.4 | 0.00 | 0.53 | 0.53 | 51 | 1005.6 |
| 20260509235719 | 21 | 204 | 4.8 | 11.3 | 0.00 | 0.53 | 0.53 | 50 | 1005.7 |
| 20260509235216 | 21 | 225 | 6.4 | 11.3 | 0.00 | 0.53 | 0.53 | 50 | 1005.5 |
| 20260509234707 | 21 | 265 | 4.8 | 6.4 | 0.00 | 0.53 | 0.53 | 50 | 1005.6 |
| 20260509234203 | 21 | 250 | 3.2 | 6.4 | 0.00 | 0.53 | 0.53 | 50 | 1005.6 |
| 20260509233701 | 21 | 252 | 9.7 | 14.5 | 0.00 | 0.53 | 0.53 | 49 | 1005.6 |
| 20260509233158 | 21 | 213 | 4.8 | 11.3 | 0.00 | 0.53 | 0.53 | 49 | 1005.5 |
| 20260509232655 | 21 | 225 | 6.4 | 20.9 | 0.00 | 0.53 | 0.53 | 48 | 1005.6 |
| 20260509232151 | 21 | 244 | 9.7 | 14.5 | 0.00 | 0.53 | 0.53 | 48 | 1005.6 |
| 20260509231648 | 22 | 216 | 3.2 | 9.7 | 0.00 | 0.53 | 0.53 | 48 | 1005.4 |
| 20260509231146 | 22 | 214 | 6.4 | 14.5 | 0.00 | 0.53 | 0.53 | 47 | 1005.6 |
| 20260509230643 | 22 | 168 | 3.2 | 14.5 | 0.00 | 0.53 | 0.53 | 47 | 1005.5 |
| 20260509230139 | 22 | 250 | 4.8 | 20.9 | 0.00 | 0.53 | 0.53 | 48 | 1005.5 |
| 20260509225636 | 22 | 215 | 4.8 | 16.1 | 0.00 | 0.53 | 0.53 | 47 | 1005.3 |
| 20260509225132 | 22 | 205 | 3.2 | 3.2 | 0.00 | 0.53 | 0.53 | 47 | 1005.5 |
| 20260509224627 | 22 | 236 | 6.4 | 9.7 | 0.00 | 0.53 | 0.53 | 48 | 1005.4 |
| 20260509224124 | 22 | 162 | 9.7 | 14.5 | 0.00 | 0.53 | 0.53 | 48 | 1005.5 |
| 20260509223620 | 22 | 202 | 6.4 | 11.3 | 0.00 | 0.53 | 0.53 | 48 | 1005.2 |
| 20260509223118 | 22 | 214 | 4.8 | 9.7 | 0.00 | 0.53 | 0.53 | 48 | 1005.3 |
| 20260509222614 | 22 | 220 | 8.0 | 14.5 | 0.00 | 0.53 | 0.53 | 48 | 1005.2 |
| 20260509222105 | 22 | 232 | 9.7 | 14.5 | 0.00 | 0.53 | 0.53 | 50 | 1005.2 |
| 20260509221600 | 22 | 187 | 12.9 | 20.9 | 0.00 | 0.53 | 0.53 | 50 | 1005.2 |
| 20260509221057 | 22 | 242 | 9.7 | 16.1 | 0.00 | 0.53 | 0.53 | 50 | 1005.5 |